createdAt,value
2022-09-06T00:00:16.963Z,99788.63
2022-09-06T00:02:45.001Z,99790.47
2022-09-06T00:05:13.009Z,99784.38
2022-09-06T00:07:40.284Z,99790.75
2022-09-06T00:10:07.610Z,99786.47
2022-09-06T00:12:34.659Z,99780.44
2022-09-06T00:15:01.097Z,99781.94
2022-09-06T00:17:27.690Z,99781.06
2022-09-06T00:19:54.171Z,99779.91
2022-09-06T00:22:20.802Z,99767.44
2022-09-06T00:24:47.852Z,99769.28
2022-09-06T00:27:14.311Z,99774.72
2022-09-06T00:29:40.837Z,99772.22
2022-09-06T00:32:08.478Z,99771.41
2022-09-06T00:34:34.940Z,99766.91
2022-09-06T00:37:01.368Z,99767.78
2022-09-06T00:39:27.858Z,99768.72
2022-09-06T00:41:54.346Z,99762.56
2022-09-06T00:44:20.884Z,99768.00
2022-09-06T00:46:52.035Z,99765.59
2022-09-06T00:49:24.843Z,99766.69
2022-09-06T00:51:55.248Z,99766.97
2022-09-06T00:54:22.196Z,99770.00
2022-09-06T00:56:48.549Z,99766.66
2022-09-06T00:59:16.121Z,99776.78
2022-09-06T01:01:43.154Z,99775.06
2022-09-06T01:04:10.248Z,99766.97
2022-09-06T01:06:36.605Z,99773.41
2022-09-06T01:09:23.846Z,99771.75
2022-09-06T01:12:21.769Z,99772.81
2022-09-06T01:15:02.224Z,99772.88
2022-09-06T01:17:58.082Z,99765.75
2022-09-06T01:20:41.810Z,99761.91
2022-09-06T01:23:29.439Z,99760.25
2022-09-06T01:26:41.065Z,99764.00
2022-09-06T01:29:16.125Z,99767.63
2022-09-06T01:31:50.450Z,99770.50
2022-09-06T01:34:24.246Z,99759.63
2022-09-06T01:37:09.456Z,99761.28
2022-09-06T01:39:37.493Z,99760.25
2022-09-06T01:42:27.158Z,99764.59
2022-09-06T01:44:58.331Z,99763.03
2022-09-06T01:47:42.824Z,99760.75
2022-09-06T01:50:12.289Z,99752.81
2022-09-06T01:53:16.426Z,99750.09
2022-09-06T01:55:52.128Z,99749.00
2022-09-06T01:58:42.904Z,99759.63
2022-09-06T02:01:21.868Z,99750.50
2022-09-06T02:04:20.532Z,99752.09
2022-09-06T02:06:52.661Z,99745.66
2022-09-06T02:09:23.862Z,99760.97
2022-09-06T02:12:01.948Z,99758.44
2022-09-06T02:14:41.364Z,99757.88
2022-09-06T02:17:12.490Z,99754.72
2022-09-06T02:19:43.739Z,99753.28
2022-09-06T02:22:15.688Z,99757.00
2022-09-06T02:24:44.648Z,99760.75
2022-09-06T02:27:12.665Z,99764.38
2022-09-06T02:29:39.303Z,99768.03
2022-09-06T02:32:34.204Z,99767.94
2022-09-06T02:35:08.719Z,99765.19
2022-09-06T02:37:35.655Z,99767.00
2022-09-06T02:40:02.237Z,99769.06
2022-09-06T02:42:28.747Z,99769.25
2022-09-06T02:44:55.369Z,99767.50
2022-09-06T02:47:21.781Z,99762.25
2022-09-06T02:49:48.211Z,99764.16
2022-09-06T02:52:15.641Z,99766.91
2022-09-06T02:54:42.061Z,99766.16
2022-09-06T02:57:08.565Z,99762.56
2022-09-06T02:59:34.990Z,99761.69
2022-09-06T03:02:01.615Z,99766.28
2022-09-06T03:04:28.075Z,99762.78
2022-09-06T03:06:54.629Z,99747.63
2022-09-06T03:09:21.054Z,99752.41
2022-09-06T03:11:47.700Z,99750.09
2022-09-06T03:14:16.251Z,99744.94
2022-09-06T03:16:43.354Z,99750.50
2022-09-06T03:19:10.079Z,99746.28
2022-09-06T03:21:36.487Z,99740.97
2022-09-06T03:24:03.354Z,99736.69
2022-09-06T03:26:30.609Z,99744.69
2022-09-06T03:28:57.035Z,99744.69
2022-09-06T03:31:23.556Z,99747.41
2022-09-06T03:33:49.984Z,99746.44
2022-09-06T03:36:17.081Z,99744.63
2022-09-06T03:38:43.619Z,99734.69
2022-09-06T03:41:11.790Z,99733.91
2022-09-06T03:43:38.272Z,99738.38
2022-09-06T03:46:04.790Z,99728.59
2022-09-06T03:48:31.582Z,99739.41
2022-09-06T03:50:59.141Z,99731.31
2022-09-06T03:53:27.599Z,99735.81
2022-09-06T03:55:55.968Z,99743.03
2022-09-06T03:58:24.500Z,99742.13
2022-09-06T04:01:17.179Z,99743.03
2022-09-06T04:03:43.673Z,99736.84
2022-09-06T04:06:10.535Z,99737.88
2022-09-06T04:08:49.407Z,99727.22
2022-09-06T04:11:17.415Z,99726.53
2022-09-06T04:13:44.250Z,99721.66
2022-09-06T04:16:10.856Z,99722.09
2022-09-06T04:18:37.309Z,99716.16
2022-09-06T04:21:04.719Z,99720.19
2022-09-06T04:23:31.196Z,99718.50
2022-09-06T04:25:59.120Z,99714.06
2022-09-06T04:28:27.018Z,99717.63
2022-09-06T04:30:55.879Z,99705.81
2022-09-06T04:33:25.913Z,99713.75
2022-09-06T04:35:54.316Z,99715.34
2022-09-06T04:38:21.002Z,99710.59
2022-09-06T04:40:55.929Z,99714.03
2022-09-06T04:43:23.174Z,99705.59
2022-09-06T04:45:49.886Z,99703.34
2022-09-06T04:48:16.459Z,99710.19
2022-09-06T04:50:42.976Z,99705.34
2022-09-06T04:53:11.051Z,99709.44
2022-09-06T04:55:38.144Z,99694.75
2022-09-06T04:58:05.087Z,99691.72
2022-09-06T05:00:33.262Z,99688.81
2022-09-06T05:02:59.751Z,99692.13
2022-09-06T05:05:26.223Z,99696.47
2022-09-06T05:07:54.279Z,99697.13
2022-09-06T05:10:20.930Z,99701.16
2022-09-06T05:12:52.573Z,99697.09
2022-09-06T05:15:20.875Z,99694.00
2022-09-06T05:17:47.340Z,99694.47
2022-09-06T05:20:14.354Z,99704.88
2022-09-06T05:22:40.903Z,99708.91
2022-09-06T05:25:08.566Z,99708.56
2022-09-06T05:27:35.410Z,99706.47
2022-09-06T05:30:03.701Z,99711.47
2022-09-06T05:32:30.129Z,99700.31
2022-09-06T05:34:56.590Z,99709.72
2022-09-06T05:37:23.060Z,99698.44
2022-09-06T05:39:51.009Z,99695.03
2022-09-06T05:42:19.386Z,99687.88
2022-09-06T05:44:46.466Z,99688.75
2022-09-06T05:47:13.537Z,99693.25
2022-09-06T05:49:40.098Z,99681.41
2022-09-06T05:54:34.685Z,99678.34
2022-09-06T05:57:01.088Z,99681.59
2022-09-06T05:59:27.592Z,99678.44
2022-09-06T06:01:55.198Z,99686.59
2022-09-06T06:04:22.498Z,99689.09
2022-09-06T06:06:49.503Z,99691.91
2022-09-06T06:09:16.789Z,99696.78
2022-09-06T06:11:44.895Z,99687.22
2022-09-06T06:14:11.488Z,99689.38
2022-09-06T06:16:38.400Z,99696.47
2022-09-06T06:19:06.860Z,99688.75
2022-09-06T06:21:34.249Z,99698.06
2022-09-06T06:24:02.955Z,99698.84
2022-09-06T06:26:32.761Z,99704.06
2022-09-06T06:29:02.079Z,99700.81
2022-09-06T06:31:30.290Z,99687.81
2022-09-06T06:33:57.089Z,99686.34
2022-09-06T06:36:24.441Z,99688.06
2022-09-06T06:38:54.338Z,99699.28
2022-09-06T06:41:25.145Z,99695.34
2022-09-06T06:43:56.031Z,99691.13
2022-09-06T06:46:26.875Z,99685.19
2022-09-06T06:48:56.226Z,99671.25
2022-09-06T06:51:25.786Z,99677.16
2022-09-06T06:53:52.800Z,99675.38
2022-09-06T06:56:22.924Z,99680.94
2022-09-06T06:58:53.606Z,99677.44
2022-09-06T07:01:22.487Z,99676.66
2022-09-06T07:03:50.095Z,99680.38
2022-09-06T07:06:17.716Z,99677.09
2022-09-06T07:08:44.735Z,99681.63
2022-09-06T07:11:13.595Z,99676.50
2022-09-06T07:13:40.583Z,99685.03
2022-09-06T07:16:21.070Z,99682.38
2022-09-06T07:18:51.235Z,99687.88
2022-09-06T07:24:10.470Z,99696.50
2022-09-06T07:26:39.160Z,99694.06
2022-09-06T07:29:06.822Z,99690.97
2022-09-06T07:34:20.933Z,99693.28
2022-09-06T07:36:48.350Z,99692.06
2022-09-06T07:39:15.064Z,99705.31
2022-09-06T07:41:42.794Z,99698.13
2022-09-06T07:44:09.371Z,99698.75
2022-09-06T07:46:36.216Z,99705.72
2022-09-06T07:49:04.192Z,99696.78
2022-09-06T07:51:31.475Z,99691.84
2022-09-06T07:54:13.282Z,99687.28
2022-09-06T07:56:44.704Z,99698.41
2022-09-06T07:59:11.219Z,99697.63
2022-09-06T08:01:39.376Z,99691.22
2022-09-06T08:04:08.907Z,99697.13
2022-09-06T08:09:34.507Z,99687.47
2022-09-06T08:12:06.802Z,99688.47
2022-09-06T08:14:34.212Z,99688.47
2022-09-06T08:17:00.785Z,99697.25
2022-09-06T08:19:27.319Z,99693.78
2022-09-06T08:21:56.897Z,99700.25
2022-09-06T08:24:23.535Z,99696.78
2022-09-06T08:26:50.345Z,99687.22
2022-09-06T08:29:16.932Z,99701.72
2022-09-06T08:31:44.801Z,99708.91
2022-09-06T08:34:15.206Z,99702.88
2022-09-06T08:36:42.572Z,99706.09
2022-09-06T08:39:10.445Z,99702.03
2022-09-06T08:42:07.391Z,99707.00
2022-09-06T08:47:22.046Z,99703.56
2022-09-06T08:49:53.025Z,99690.81
2022-09-06T08:52:45.277Z,99688.84
2022-09-06T08:55:33.153Z,99687.38
2022-09-06T08:58:24.632Z,99686.03
2022-09-06T09:01:00.874Z,99676.50
2022-09-06T09:03:37.133Z,99674.13
2022-09-06T09:06:06.060Z,99674.47
2022-09-06T09:09:05.959Z,99671.38
2022-09-06T09:11:36.433Z,99666.41
2022-09-06T09:14:08.649Z,99662.19
2022-09-06T09:16:35.302Z,99656.69
2022-09-06T09:19:03.567Z,99664.25
2022-09-06T09:21:34.545Z,99662.72
2022-09-06T09:24:09.605Z,99657.50
2022-09-06T09:26:51.945Z,99651.00
2022-09-06T09:29:20.865Z,99651.84
2022-09-06T09:31:54.167Z,99654.56
2022-09-06T09:34:35.945Z,99650.81
2022-09-06T09:40:01.038Z,99650.97
2022-09-06T09:42:37.095Z,99650.81
2022-09-06T09:45:09.896Z,99648.59
2022-09-06T09:47:36.375Z,99642.09
2022-09-06T09:50:23.718Z,99640.13
2022-09-06T09:52:50.165Z,99626.22
2022-09-06T09:55:23.563Z,99631.25
2022-09-06T09:57:51.101Z,99623.06
2022-09-06T10:00:34.349Z,99627.13
2022-09-06T10:03:11.201Z,99621.94
2022-09-06T10:05:40.957Z,99617.06
2022-09-06T10:08:11.914Z,99620.22
2022-09-06T10:10:46.821Z,99614.75
2022-09-06T10:13:26.655Z,99614.03
2022-09-06T10:15:54.033Z,99616.22
2022-09-06T10:18:20.550Z,99612.09
2022-09-06T10:20:50.281Z,99614.41
2022-09-06T10:26:51.957Z,99620.66
2022-09-06T10:29:52.974Z,99617.84
2022-09-06T10:32:44.082Z,99612.38
2022-09-06T10:35:37.778Z,99611.22
2022-09-06T10:38:19.270Z,99608.81
2022-09-06T10:41:04.423Z,99608.25
2022-09-06T10:43:41.536Z,99615.22
2022-09-06T10:46:21.713Z,99607.75
2022-09-06T10:48:48.587Z,99613.09
2022-09-06T10:51:24.490Z,99612.53
2022-09-06T10:54:13.107Z,99600.63
2022-09-06T10:56:54.025Z,99602.09
2022-09-06T10:59:43.730Z,99594.75
2022-09-06T11:02:44.180Z,99601.69
2022-09-06T11:10:55.464Z,99598.94
2022-09-06T11:13:27.716Z,99592.78
2022-09-06T11:16:03.139Z,99598.72
2022-09-06T11:18:51.898Z,99586.66
2022-09-06T11:22:00.927Z,99583.53
2022-09-06T11:24:33.155Z,99571.47
2022-09-06T11:27:38.118Z,99569.88
2022-09-06T11:30:06.869Z,99564.53
2022-09-06T11:32:39.100Z,99562.47
2022-09-06T11:35:28.623Z,99564.25
2022-09-06T11:38:15.953Z,99555.63
2022-09-06T11:40:46.740Z,99558.75
2022-09-06T11:43:19.100Z,99559.78
2022-09-06T11:45:47.584Z,99555.19
2022-09-06T11:48:34.477Z,99555.91
2022-09-06T11:51:06.809Z,99558.00
2022-09-06T11:53:49.779Z,99549.63
2022-09-06T11:56:31.015Z,99538.91
2022-09-06T11:59:04.011Z,99550.34
2022-09-06T12:01:30.428Z,99547.19
2022-09-06T12:06:40.882Z,99551.06
2022-09-06T12:09:28.429Z,99537.13
2022-09-06T12:11:56.623Z,99536.69
2022-09-06T12:15:18.819Z,99530.94
2022-09-06T12:17:47.559Z,99523.63
2022-09-06T12:20:48.828Z,99516.75
2022-09-06T12:23:37.237Z,99517.28
2022-09-06T12:26:08.634Z,99505.75
2022-09-06T12:28:45.215Z,99501.69
2022-09-06T12:31:29.102Z,99499.84
2022-09-06T12:33:57.753Z,99505.34
2022-09-06T12:36:30.367Z,99501.38
2022-09-06T12:39:03.694Z,99499.34
2022-09-06T12:41:38.373Z,99499.97
2022-09-06T12:44:08.315Z,99501.25
2022-09-06T12:46:36.358Z,99501.84
2022-09-06T12:49:11.494Z,99498.44
2022-09-06T12:51:40.144Z,99494.00
2022-09-06T12:54:23.117Z,99498.97
2022-09-06T12:56:51.413Z,99499.81
2022-09-06T12:59:23.544Z,99495.66
2022-09-06T13:01:57.201Z,99491.50
2022-09-06T13:04:37.391Z,99494.34
2022-09-06T13:07:05.018Z,99488.19
2022-09-06T13:09:32.823Z,99487.03
2022-09-06T13:12:08.600Z,99478.94
2022-09-06T13:14:35.763Z,99489.19
2022-09-06T13:17:02.616Z,99492.69
2022-09-06T13:19:33.761Z,99488.91
2022-09-06T13:22:01.811Z,99491.72
2022-09-06T13:24:32.620Z,99493.53
2022-09-06T13:26:59.090Z,99488.44
2022-09-06T13:29:29.290Z,99478.97
2022-09-06T13:31:59.837Z,99487.22
2022-09-06T13:34:31.900Z,99494.66
2022-09-06T13:37:05.279Z,99497.16
2022-09-06T13:39:37.576Z,99505.84
2022-09-06T13:42:08.408Z,99503.72
2022-09-06T13:44:37.797Z,99499.16
2022-09-06T13:47:05.040Z,99500.06
2022-09-06T13:49:34.113Z,99508.22
2022-09-06T13:52:03.079Z,99553.41
2022-09-06T13:54:31.719Z,99564.25
2022-09-06T13:56:58.312Z,99568.88
2022-09-06T13:59:25.242Z,99573.94
2022-09-06T14:02:04.907Z,99583.94
2022-09-06T14:04:32.367Z,99587.97
2022-09-06T14:06:58.930Z,99592.59
2022-09-06T14:09:25.466Z,99602.00
2022-09-06T14:11:52.077Z,99609.75
2022-09-06T14:14:18.741Z,99609.94
2022-09-06T14:16:46.067Z,99616.66
2022-09-06T14:19:12.522Z,99625.56
2022-09-06T14:21:39.308Z,99620.34
2022-09-06T14:24:05.826Z,99627.22
2022-09-06T14:26:33.256Z,99619.19
2022-09-06T14:28:59.869Z,99620.72
2022-09-06T14:31:27.950Z,99612.31
2022-09-06T14:33:56.101Z,99612.81
2022-09-06T14:36:25.854Z,99604.53
2022-09-06T14:38:53.270Z,99594.28
2022-09-06T14:41:20.476Z,99589.34
2022-09-06T14:43:52.725Z,99577.47
2022-09-06T14:46:22.008Z,99573.28
2022-09-06T14:48:49.377Z,99568.47
2022-09-06T14:51:24.029Z,99563.28
2022-09-06T14:53:54.101Z,99568.47
2022-09-06T14:56:21.356Z,99565.00
2022-09-06T14:58:48.080Z,99564.41
2022-09-06T15:01:22.507Z,99558.72
2022-09-06T15:03:52.099Z,99561.84
2022-09-06T15:06:23.119Z,99557.91
2022-09-06T15:08:52.861Z,99555.94
2022-09-06T15:11:36.641Z,99546.53
2022-09-06T15:14:05.180Z,99544.66
2022-09-06T15:16:32.892Z,99539.22
2022-09-06T15:18:59.660Z,99529.56
2022-09-06T15:21:26.677Z,99534.16
2022-09-06T15:23:53.509Z,99531.44
2022-09-06T15:26:20.773Z,99526.97
2022-09-06T15:28:48.681Z,99518.91
2022-09-06T15:31:15.680Z,99518.28
2022-09-06T15:33:42.306Z,99516.78
2022-09-06T15:36:10.387Z,99507.31
2022-09-06T15:38:42.657Z,99495.13
2022-09-06T15:41:21.415Z,99498.34
2022-09-06T15:43:50.629Z,99488.69
2022-09-06T15:46:21.257Z,99492.91
2022-09-06T15:48:50.115Z,99498.06
2022-09-06T15:51:20.808Z,99500.19
2022-09-06T15:53:48.284Z,99498.34
2022-09-06T15:56:16.975Z,99501.91
2022-09-06T15:58:47.690Z,99504.75
2022-09-06T16:01:17.583Z,99495.84
2022-09-06T16:03:53.768Z,99494.00
2022-09-06T16:06:26.955Z,99498.97
2022-09-06T16:09:08.564Z,99497.44
2022-09-06T16:11:36.926Z,99500.94
2022-09-06T16:14:05.599Z,99510.84
2022-09-06T16:16:32.977Z,99513.56
2022-09-06T16:19:00.235Z,99511.06
2022-09-06T16:21:32.118Z,99505.25
2022-09-06T16:24:01.547Z,99499.19
2022-09-06T16:26:34.233Z,99502.81
2022-09-06T16:29:02.298Z,99499.94
2022-09-06T16:31:29.703Z,99502.66
2022-09-06T16:33:57.893Z,99501.69
2022-09-06T16:36:25.375Z,99503.44
2022-09-06T16:38:52.210Z,99502.31
2022-09-06T16:41:20.806Z,99501.44
2022-09-06T16:43:49.344Z,99496.75
2022-09-06T16:46:16.569Z,99496.47
2022-09-06T16:48:43.169Z,99486.34
2022-09-06T16:51:13.483Z,99485.38
2022-09-06T16:53:41.745Z,99476.31
2022-09-06T16:56:09.500Z,99475.34
2022-09-06T16:58:36.464Z,99473.50
2022-09-06T17:01:03.080Z,99476.22
2022-09-06T17:03:29.995Z,99495.13
2022-09-06T17:05:56.462Z,99492.53
2022-09-06T17:08:23.063Z,99478.94
2022-09-06T17:10:49.487Z,99470.78
2022-09-06T17:13:16.026Z,99470.03
2022-09-06T17:16:00.894Z,99476.81
2022-09-06T17:18:27.446Z,99466.31
2022-09-06T17:20:57.698Z,99475.81
2022-09-06T17:23:24.918Z,99480.75
2022-09-06T17:25:51.979Z,99473.22
2022-09-06T17:28:18.926Z,99477.53
2022-09-06T17:30:45.585Z,99475.63
2022-09-06T17:33:17.857Z,99470.16
2022-09-06T17:35:45.475Z,99468.16
2022-09-06T17:38:12.781Z,99479.63
2022-09-06T17:40:39.927Z,99473.91
2022-09-06T17:43:06.595Z,99480.66
2022-09-06T17:45:42.596Z,99479.03
2022-09-06T17:48:09.613Z,99481.25
2022-09-06T17:50:36.298Z,99484.31
2022-09-06T17:55:53.310Z,99488.91
2022-09-06T17:58:20.096Z,99489.63
2022-09-06T18:00:46.456Z,99497.66
2022-09-06T18:03:13.014Z,99501.19
2022-09-06T18:05:40.264Z,99496.31
2022-09-06T18:08:09.632Z,99496.03
2022-09-06T18:10:37.880Z,99492.88
2022-09-06T18:13:06.077Z,99491.81
2022-09-06T18:15:39.316Z,99491.56
2022-09-06T18:18:06.196Z,99494.50
2022-09-06T18:20:32.665Z,99498.53
2022-09-06T18:23:00.313Z,99496.91
2022-09-06T18:25:28.472Z,99492.56
2022-09-06T18:27:54.974Z,99498.19
2022-09-06T18:30:21.507Z,99496.78
2022-09-06T18:32:48.371Z,99494.41
2022-09-06T18:35:14.762Z,99498.31
2022-09-06T18:37:41.247Z,99488.56
2022-09-06T18:40:08.419Z,99489.72
2022-09-06T18:42:34.980Z,99489.84
2022-09-06T18:45:01.891Z,99485.50
2022-09-06T18:47:28.280Z,99483.03
2022-09-06T18:49:54.779Z,99480.50
2022-09-06T18:52:21.271Z,99478.09
2022-09-06T18:54:49.020Z,99469.25
2022-09-06T18:57:16.546Z,99471.06
2022-09-06T18:59:43.367Z,99470.41
2022-09-06T19:02:09.904Z,99470.41
2022-09-06T19:04:36.575Z,99467.16
2022-09-06T19:07:03.880Z,99464.75
2022-09-06T19:09:30.389Z,99469.50
2022-09-06T19:11:56.839Z,99462.81
2022-09-06T19:14:23.438Z,99469.31
2022-09-06T19:16:51.664Z,99471.25
2022-09-06T19:19:18.278Z,99474.25
2022-09-06T19:21:44.779Z,99478.06
2022-09-06T19:24:12.411Z,99480.09
2022-09-06T19:26:42.086Z,99476.72
2022-09-06T19:29:14.287Z,99478.88
2022-09-06T19:31:41.303Z,99480.88
2022-09-06T19:34:07.888Z,99478.41
2022-09-06T19:36:34.907Z,99481.53
2022-09-06T19:39:05.529Z,99475.44
2022-09-06T19:41:35.796Z,99481.28
2022-09-06T19:44:05.602Z,99471.81
2022-09-06T19:46:32.340Z,99473.00
2022-09-06T19:49:00.428Z,99467.78
2022-09-06T19:51:26.888Z,99466.34
2022-09-06T19:53:57.711Z,99461.91
2022-09-06T19:56:26.802Z,99464.06
2022-09-06T19:58:58.480Z,99466.94
2022-09-06T20:01:29.247Z,99466.16
2022-09-06T20:03:56.018Z,99463.56
2022-09-06T20:06:22.679Z,99460.84
2022-09-06T20:08:51.773Z,99456.41
2022-09-06T20:11:19.672Z,99465.41
2022-09-06T20:13:46.369Z,99450.13
2022-09-06T20:16:14.039Z,99449.34
2022-09-06T20:18:41.304Z,99458.94
2022-09-06T20:21:08.471Z,99448.75
2022-09-06T20:23:35.569Z,99449.31
2022-09-06T20:26:06.371Z,99447.69
2022-09-06T20:28:33.609Z,99450.31
2022-09-06T20:31:06.390Z,99452.31
2022-09-06T20:33:34.122Z,99445.38
2022-09-06T20:36:03.088Z,99441.97
2022-09-06T20:38:31.532Z,99446.72
2022-09-06T20:41:03.784Z,99446.81
2022-09-06T20:43:33.679Z,99444.97
2022-09-06T20:46:00.832Z,99434.94
2022-09-06T20:48:27.645Z,99440.25
2022-09-06T20:51:02.146Z,99432.97
2022-09-06T20:53:30.339Z,99430.00
2022-09-06T20:56:13.953Z,99423.72
2022-09-06T20:58:41.076Z,99419.19
2022-09-06T21:01:14.956Z,99416.59
2022-09-06T21:03:42.724Z,99416.69
2022-09-06T21:06:11.013Z,99416.59
2022-09-06T21:08:42.006Z,99411.47
2022-09-06T21:11:10.333Z,99404.41
2022-09-06T21:13:38.269Z,99407.13
2022-09-06T21:16:05.692Z,99399.97
2022-09-06T21:18:33.022Z,99390.16
2022-09-06T21:21:05.011Z,99385.72
2022-09-06T21:23:33.837Z,99389.38
2022-09-06T21:26:05.737Z,99384.13
2022-09-06T21:28:34.693Z,99387.06
2022-09-06T21:31:09.782Z,99381.81
2022-09-06T21:33:39.136Z,99376.63
2022-09-06T21:36:07.935Z,99374.88
2022-09-06T21:38:35.987Z,99377.81
2022-09-06T21:41:04.681Z,99382.53
2022-09-06T21:43:31.987Z,99382.69
2022-09-06T21:46:07.035Z,99372.09
2022-09-06T21:48:42.167Z,99376.81
2022-09-06T21:51:10.580Z,99376.91
2022-09-06T21:53:37.526Z,99367.06
2022-09-06T21:56:04.503Z,99367.66
2022-09-06T21:58:31.511Z,99367.44
2022-09-06T22:00:59.322Z,99364.28
2022-09-06T22:03:30.788Z,99353.84
2022-09-06T22:05:57.713Z,99363.13
2022-09-06T22:08:24.653Z,99359.72
2022-09-06T22:10:51.849Z,99354.34
2022-09-06T22:13:19.804Z,99360.69
2022-09-06T22:15:46.464Z,99358.16
2022-09-06T22:18:13.578Z,99353.72
2022-09-06T22:20:40.305Z,99350.16
2022-09-06T22:23:08.388Z,99355.56
2022-09-06T22:25:34.939Z,99348.41
2022-09-06T22:28:01.669Z,99349.31
2022-09-06T22:30:28.163Z,99356.72
2022-09-06T22:32:54.746Z,99354.50
2022-09-06T22:35:21.515Z,99355.75
2022-09-06T22:37:48.094Z,99359.59
2022-09-06T22:40:14.668Z,99357.28
2022-09-06T22:42:41.114Z,99358.22
2022-09-06T22:45:08.123Z,99360.94
2022-09-06T22:47:34.589Z,99358.13
2022-09-06T22:50:01.055Z,99361.69
2022-09-06T22:52:27.979Z,99361.88
2022-09-06T22:54:54.386Z,99360.25
2022-09-06T22:57:20.828Z,99360.25
2022-09-06T22:59:47.309Z,99354.16
2022-09-06T23:02:13.779Z,99361.56
2022-09-06T23:04:40.399Z,99355.47
2022-09-06T23:07:07.020Z,99356.63
2022-09-06T23:09:33.497Z,99356.72
2022-09-06T23:12:00.043Z,99350.53
2022-09-06T23:14:28.024Z,99349.75
2022-09-06T23:16:54.576Z,99352.47
2022-09-06T23:19:21.011Z,99348.00
2022-09-06T23:21:47.549Z,99343.59
2022-09-06T23:24:14.024Z,99348.91
2022-09-06T23:26:40.564Z,99351.69
2022-09-06T23:29:07.943Z,99348.22
2022-09-06T23:31:35.101Z,99339.34
2022-09-06T23:34:02.657Z,99339.34
2022-09-06T23:36:30.252Z,99342.94
2022-09-06T23:38:57.132Z,99330.50
2022-09-06T23:41:24.860Z,99327.06
2022-09-06T23:43:51.511Z,99328.00
2022-09-06T23:46:18.414Z,99319.91
2022-09-06T23:48:44.890Z,99319.91
2022-09-06T23:51:12.782Z,99318.06
2022-09-06T23:53:39.698Z,99323.22
2022-09-06T23:56:07.066Z,99324.78
2022-09-06T23:58:33.796Z,99318.44
